Terminal Aerodrome Forecast
Issued by NWS

Home | Current Version | Previous Version | Text Only | Print | Product List | Glossary On
Versions: 1 2 3 4 5 6 7 8 9 10 11 12 13 14 15 16 17 18 19 20 21 22 23 24 25 26
588
FTUS43 KDLH 220755 AAA
TAFHIB
TAF AMD
KHIB 220755Z 2208/2306 10004KT P6SM VCTS BKN050CB WS020/19040KT
      TEMPO 2208/2210 VRB15G30KT 3SM TSRAGS SCT015CB BKN035CB
     FM221000 16004KT 6SM BR VCTS SCT015 BKN040CB
     FM221200 VRB03KT 4SM -SHRA BR OVC015
     FM221500 17009KT P6SM BKN008
     FM221800 15006KT P6SM SCT015 BKN100
     FM230200 16006KT P6SM VCSH SCT100=

USA.gov is the U.S. government's official web portal to all federal, state and local government web resources and services.